sensor_id;sensor_type;location;lat;lon;timestamp;P1;durP1;ratioP1;P2;durP2;ratioP2
71867;SDS011;59738;48.324;14.230;2023-08-07T00:00:07;2.83;;;1.13;;
71867;SDS011;59738;48.324;14.230;2023-08-07T00:02:39;2.88;;;1.23;;
71867;SDS011;59738;48.324;14.230;2023-08-07T00:05:06;1.57;;;1.47;;
71867;SDS011;59738;48.324;14.230;2023-08-07T00:07:34;1.48;;;1.20;;
71867;SDS011;59738;48.324;14.230;2023-08-07T00:10:03;1.70;;;1.60;;
71867;SDS011;59738;48.324;14.230;2023-08-07T00:12:31;1.40;;;1.30;;
71867;SDS011;59738;48.324;14.230;2023-08-07T00:14:58;2.03;;;1.25;;
71867;SDS011;59738;48.324;14.230;2023-08-07T00:17:26;1.70;;;1.40;;
71867;SDS011;59738;48.324;14.230;2023-08-07T00:19:53;1.92;;;1.50;;
71867;SDS011;59738;48.324;14.230;2023-08-07T00:22:21;2.47;;;1.42;;
71867;SDS011;59738;48.324;14.230;2023-08-07T00:24:48;1.92;;;1.30;;
71867;SDS011;59738;48.324;14.230;2023-08-07T00:27:17;4.38;;;1.40;;
71867;SDS011;59738;48.324;14.230;2023-08-07T00:29:44;1.47;;;1.20;;
71867;SDS011;59738;48.324;14.230;2023-08-07T00:32:12;1.77;;;1.30;;
71867;SDS011;59738;48.324;14.230;2023-08-07T00:34:40;1.52;;;1.42;;
71867;SDS011;59738;48.324;14.230;2023-08-07T00:37:08;2.30;;;1.15;;
71867;SDS011;59738;48.324;14.230;2023-08-07T00:39:35;2.17;;;1.20;;
71867;SDS011;59738;48.324;14.230;2023-08-07T00:42:03;1.43;;;1.33;;
71867;SDS011;59738;48.324;14.230;2023-08-07T00:44:31;1.38;;;1.25;;
71867;SDS011;59738;48.324;14.230;2023-08-07T00:46:59;3.13;;;1.38;;
71867;SDS011;59738;48.324;14.230;2023-08-07T00:49:26;1.33;;;1.23;;
71867;SDS011;59738;48.324;14.230;2023-08-07T00:51:55;4.25;;;1.40;;
71867;SDS011;59738;48.324;14.230;2023-08-07T00:54:22;1.80;;;1.40;;
71867;SDS011;59738;48.324;14.230;2023-08-07T00:56:49;1.80;;;1.42;;
71867;SDS011;59738;48.324;14.230;2023-08-07T00:59:17;3.83;;;1.40;;
71867;SDS011;59738;48.324;14.230;2023-08-07T01:01:46;2.58;;;1.50;;
71867;SDS011;59738;48.324;14.230;2023-08-07T01:04:14;1.55;;;1.15;;
71867;SDS011;59738;48.324;14.230;2023-08-07T01:06:41;4.10;;;1.33;;
71867;SDS011;59738;48.324;14.230;2023-08-07T01:09:08;2.50;;;1.48;;
71867;SDS011;59738;48.324;14.230;2023-08-07T01:11:43;1.40;;;1.30;;
71867;SDS011;59738;48.324;14.230;2023-08-07T01:14:13;1.20;;;1.10;;
71867;SDS011;59738;48.324;14.230;2023-08-07T01:16:50;1.23;;;1.13;;
71867;SDS011;59738;48.324;14.230;2023-08-07T01:19:22;1.63;;;1.47;;
71867;SDS011;59738;48.324;14.230;2023-08-07T01:22:04;1.40;;;1.30;;
71867;SDS011;59738;48.324;14.230;2023-08-07T01:24:32;1.50;;;1.30;;
71867;SDS011;59738;48.324;14.230;2023-08-07T01:27:01;1.20;;;1.10;;
71867;SDS011;59738;48.324;14.230;2023-08-07T01:29:35;4.50;;;1.55;;
71867;SDS011;59738;48.324;14.230;2023-08-07T01:32:04;2.27;;;1.30;;
71867;SDS011;59738;48.324;14.230;2023-08-07T01:34:33;2.17;;;1.20;;
71867;SDS011;59738;48.324;14.230;2023-08-07T01:37:01;5.50;;;1.25;;
71867;SDS011;59738;48.324;14.230;2023-08-07T01:39:31;1.20;;;1.10;;
71867;SDS011;59738;48.324;14.230;2023-08-07T01:41:59;3.17;;;1.10;;
71867;SDS011;59738;48.324;14.230;2023-08-07T01:44:28;2.87;;;1.13;;
71867;SDS011;59738;48.324;14.230;2023-08-07T01:46:56;1.90;;;1.10;;
71867;SDS011;59738;48.324;14.230;2023-08-07T01:49:23;2.60;;;1.58;;
71867;SDS011;59738;48.324;14.230;2023-08-07T01:51:51;2.90;;;1.38;;
71867;SDS011;59738;48.324;14.230;2023-08-07T01:54:18;2.28;;;1.23;;
71867;SDS011;59738;48.324;14.230;2023-08-07T01:56:47;2.13;;;1.10;;
71867;SDS011;59738;48.324;14.230;2023-08-07T01:59:14;2.10;;;1.23;;
71867;SDS011;59738;48.324;14.230;2023-08-07T02:01:41;2.60;;;1.40;;
71867;SDS011;59738;48.324;14.230;2023-08-07T02:04:09;4.65;;;1.38;;
71867;SDS011;59738;48.324;14.230;2023-08-07T02:06:36;4.70;;;1.40;;
71867;SDS011;59738;48.324;14.230;2023-08-07T02:09:03;1.20;;;1.10;;
71867;SDS011;59738;48.324;14.230;2023-08-07T02:11:31;1.75;;;1.20;;
71867;SDS011;59738;48.324;14.230;2023-08-07T02:13:59;3.28;;;1.85;;
71867;SDS011;59738;48.324;14.230;2023-08-07T02:16:27;2.00;;;1.20;;
71867;SDS011;59738;48.324;14.230;2023-08-07T02:18:54;2.13;;;1.30;;
71867;SDS011;59738;48.324;14.230;2023-08-07T02:21:22;1.87;;;1.00;;
71867;SDS011;59738;48.324;14.230;2023-08-07T02:23:49;1.30;;;1.20;;
71867;SDS011;59738;48.324;14.230;2023-08-07T02:26:16;1.85;;;1.10;;
71867;SDS011;59738;48.324;14.230;2023-08-07T02:28:43;2.40;;;1.83;;
71867;SDS011;59738;48.324;14.230;2023-08-07T02:31:12;2.78;;;1.10;;
71867;SDS011;59738;48.324;14.230;2023-08-07T02:33:39;1.27;;;1.17;;
71867;SDS011;59738;48.324;14.230;2023-08-07T02:36:07;1.75;;;1.30;;
71867;SDS011;59738;48.324;14.230;2023-08-07T02:38:34;3.00;;;1.20;;
71867;SDS011;59738;48.324;14.230;2023-08-07T02:41:02;1.38;;;1.27;;
71867;SDS011;59738;48.324;14.230;2023-08-07T02:43:29;1.88;;;1.10;;
71867;SDS011;59738;48.324;14.230;2023-08-07T02:45:58;3.30;;;1.47;;
71867;SDS011;59738;48.324;14.230;2023-08-07T02:48:27;2.17;;;1.35;;
71867;SDS011;59738;48.324;14.230;2023-08-07T02:50:54;1.60;;;1.48;;
71867;SDS011;59738;48.324;14.230;2023-08-07T02:53:22;2.40;;;1.25;;
71867;SDS011;59738;48.324;14.230;2023-08-07T02:55:49;2.92;;;1.52;;
71867;SDS011;59738;48.324;14.230;2023-08-07T02:58:16;1.57;;;1.47;;
71867;SDS011;59738;48.324;14.230;2023-08-07T03:00:44;2.15;;;1.30;;
71867;SDS011;59738;48.324;14.230;2023-08-07T03:03:11;2.05;;;1.27;;
71867;SDS011;59738;48.324;14.230;2023-08-07T03:05:40;2.72;;;1.40;;
71867;SDS011;59738;48.324;14.230;2023-08-07T03:08:15;2.08;;;1.30;;
71867;SDS011;59738;48.324;14.230;2023-08-07T03:10:42;2.73;;;1.20;;
71867;SDS011;59738;48.324;14.230;2023-08-07T03:13:09;1.58;;;1.38;;
71867;SDS011;59738;48.324;14.230;2023-08-07T03:15:37;1.40;;;1.27;;
71867;SDS011;59738;48.324;14.230;2023-08-07T03:18:04;1.50;;;1.40;;
71867;SDS011;59738;48.324;14.230;2023-08-07T03:20:32;1.65;;;1.40;;
71867;SDS011;59738;48.324;14.230;2023-08-07T03:23:00;1.27;;;1.20;;
71867;SDS011;59738;48.324;14.230;2023-08-07T03:25:28;2.13;;;1.02;;
71867;SDS011;59738;48.324;14.230;2023-08-07T03:27:55;1.50;;;1.40;;
71867;SDS011;59738;48.324;14.230;2023-08-07T03:30:22;1.50;;;1.40;;
71867;SDS011;59738;48.324;14.230;2023-08-07T03:32:50;1.30;;;1.20;;
71867;SDS011;59738;48.324;14.230;2023-08-07T03:35:18;1.57;;;1.47;;
71867;SDS011;59738;48.324;14.230;2023-08-07T03:37:46;2.50;;;1.38;;
71867;SDS011;59738;48.324;14.230;2023-08-07T03:40:15;1.55;;;1.40;;
71867;SDS011;59738;48.324;14.230;2023-08-07T03:42:43;1.30;;;1.13;;
71867;SDS011;59738;48.324;14.230;2023-08-07T03:45:11;2.88;;;1.15;;
71867;SDS011;59738;48.324;14.230;2023-08-07T03:47:38;1.70;;;1.00;;
71867;SDS011;59738;48.324;14.230;2023-08-07T03:50:06;2.00;;;1.10;;
71867;SDS011;59738;48.324;14.230;2023-08-07T03:52:34;1.02;;;1.00;;
71867;SDS011;59738;48.324;14.230;2023-08-07T03:55:01;1.33;;;1.23;;
71867;SDS011;59738;48.324;14.230;2023-08-07T03:57:30;1.45;;;1.08;;
71867;SDS011;59738;48.324;14.230;2023-08-07T03:59:58;1.00;;;0.97;;
71867;SDS011;59738;48.324;14.230;2023-08-07T04:02:28;0.98;;;0.95;;
71867;SDS011;59738;48.324;14.230;2023-08-07T04:04:56;1.30;;;1.20;;
71867;SDS011;59738;48.324;14.230;2023-08-07T04:07:23;3.08;;;1.10;;
71867;SDS011;59738;48.324;14.230;2023-08-07T04:09:50;1.50;;;1.10;;
71867;SDS011;59738;48.324;14.230;2023-08-07T04:12:18;1.03;;;1.00;;
71867;SDS011;59738;48.324;14.230;2023-08-07T04:14:46;1.13;;;1.02;;
71867;SDS011;59738;48.324;14.230;2023-08-07T04:17:14;1.77;;;1.58;;
71867;SDS011;59738;48.324;14.230;2023-08-07T04:19:41;1.67;;;1.42;;
71867;SDS011;59738;48.324;14.230;2023-08-07T04:22:09;3.40;;;1.40;;
71867;SDS011;59738;48.324;14.230;2023-08-07T04:24:36;1.27;;;1.00;;
71867;SDS011;59738;48.324;14.230;2023-08-07T04:27:04;1.20;;;1.10;;
71867;SDS011;59738;48.324;14.230;2023-08-07T04:29:32;2.78;;;1.52;;
71867;SDS011;59738;48.324;14.230;2023-08-07T04:32:00;1.70;;;1.17;;
71867;SDS011;59738;48.324;14.230;2023-08-07T04:34:28;1.00;;;1.00;;
71867;SDS011;59738;48.324;14.230;2023-08-07T04:36:55;1.50;;;1.20;;
71867;SDS011;59738;48.324;14.230;2023-08-07T04:39:23;1.80;;;1.20;;
71867;SDS011;59738;48.324;14.230;2023-08-07T04:41:50;1.75;;;1.20;;
71867;SDS011;59738;48.324;14.230;2023-08-07T04:44:17;1.30;;;1.20;;
71867;SDS011;59738;48.324;14.230;2023-08-07T04:46:44;1.75;;;0.95;;
71867;SDS011;59738;48.324;14.230;2023-08-07T04:49:14;1.00;;;0.90;;
71867;SDS011;59738;48.324;14.230;2023-08-07T04:51:41;1.17;;;1.08;;
71867;SDS011;59738;48.324;14.230;2023-08-07T04:54:08;2.67;;;1.30;;
71867;SDS011;59738;48.324;14.230;2023-08-07T04:56:35;0.90;;;0.90;;
71867;SDS011;59738;48.324;14.230;2023-08-07T04:59:03;1.33;;;1.13;;
71867;SDS011;59738;48.324;14.230;2023-08-07T05:01:30;2.07;;;1.20;;
71867;SDS011;59738;48.324;14.230;2023-08-07T05:03:57;0.90;;;0.90;;
71867;SDS011;59738;48.324;14.230;2023-08-07T05:06:26;1.40;;;1.30;;
71867;SDS011;59738;48.324;14.230;2023-08-07T05:08:53;1.17;;;1.08;;
71867;SDS011;59738;48.324;14.230;2023-08-07T05:11:21;2.35;;;1.40;;
71867;SDS011;59738;48.324;14.230;2023-08-07T05:13:48;1.63;;;1.20;;
71867;SDS011;59738;48.324;14.230;2023-08-07T05:16:15;1.00;;;1.00;;
71867;SDS011;59738;48.324;14.230;2023-08-07T05:18:44;1.17;;;1.10;;
71867;SDS011;59738;48.324;14.230;2023-08-07T05:21:12;4.35;;;1.20;;
71867;SDS011;59738;48.324;14.230;2023-08-07T05:23:40;1.20;;;1.00;;
71867;SDS011;59738;48.324;14.230;2023-08-07T05:26:08;1.27;;;1.17;;
71867;SDS011;59738;48.324;14.230;2023-08-07T05:28:35;2.40;;;1.10;;
71867;SDS011;59738;48.324;14.230;2023-08-07T05:31:02;2.58;;;1.45;;
71867;SDS011;59738;48.324;14.230;2023-08-07T05:33:30;1.35;;;1.08;;
71867;SDS011;59738;48.324;14.230;2023-08-07T05:35:57;1.40;;;1.20;;
71867;SDS011;59738;48.324;14.230;2023-08-07T05:38:24;1.10;;;1.00;;
71867;SDS011;59738;48.324;14.230;2023-08-07T05:40:53;1.92;;;1.38;;
71867;SDS011;59738;48.324;14.230;2023-08-07T05:43:20;4.07;;;1.73;;
71867;SDS011;59738;48.324;14.230;2023-08-07T05:45:48;1.60;;;1.40;;
71867;SDS011;59738;48.324;14.230;2023-08-07T05:48:17;2.67;;;1.40;;
71867;SDS011;59738;48.324;14.230;2023-08-07T05:50:44;2.43;;;1.83;;
71867;SDS011;59738;48.324;14.230;2023-08-07T05:53:11;5.22;;;1.65;;
71867;SDS011;59738;48.324;14.230;2023-08-07T05:55:39;3.00;;;1.50;;
71867;SDS011;59738;48.324;14.230;2023-08-07T05:58:09;2.92;;;1.70;;
71867;SDS011;59738;48.324;14.230;2023-08-07T06:00:36;2.90;;;1.48;;
71867;SDS011;59738;48.324;14.230;2023-08-07T06:03:04;4.10;;;1.80;;
71867;SDS011;59738;48.324;14.230;2023-08-07T06:05:31;2.65;;;1.70;;
71867;SDS011;59738;48.324;14.230;2023-08-07T06:07:58;2.08;;;1.60;;
71867;SDS011;59738;48.324;14.230;2023-08-07T06:10:26;2.00;;;1.40;;
71867;SDS011;59738;48.324;14.230;2023-08-07T06:12:53;2.80;;;1.77;;
71867;SDS011;59738;48.324;14.230;2023-08-07T06:15:22;3.30;;;1.90;;
71867;SDS011;59738;48.324;14.230;2023-08-07T06:17:49;2.00;;;1.63;;
71867;SDS011;59738;48.324;14.230;2023-08-07T06:20:17;4.97;;;1.40;;
71867;SDS011;59738;48.324;14.230;2023-08-07T06:22:46;3.53;;;1.58;;
71867;SDS011;59738;48.324;14.230;2023-08-07T06:25:13;4.47;;;1.58;;
71867;SDS011;59738;48.324;14.230;2023-08-07T06:27:41;3.93;;;1.37;;
71867;SDS011;59738;48.324;14.230;2023-08-07T06:30:08;3.20;;;1.65;;
71867;SDS011;59738;48.324;14.230;2023-08-07T06:32:38;3.85;;;1.50;;
71867;SDS011;59738;48.324;14.230;2023-08-07T06:35:06;2.55;;;1.80;;
71867;SDS011;59738;48.324;14.230;2023-08-07T06:37:34;2.38;;;1.55;;
71867;SDS011;59738;48.324;14.230;2023-08-07T06:40:01;1.80;;;1.30;;
71867;SDS011;59738;48.324;14.230;2023-08-07T06:42:29;1.45;;;1.35;;
71867;SDS011;59738;48.324;14.230;2023-08-07T06:44:57;2.30;;;1.58;;
71867;SDS011;59738;48.324;14.230;2023-08-07T06:47:24;3.17;;;1.60;;
71867;SDS011;59738;48.324;14.230;2023-08-07T06:49:53;4.50;;;1.52;;
71867;SDS011;59738;48.324;14.230;2023-08-07T06:52:20;2.40;;;1.63;;
71867;SDS011;59738;48.324;14.230;2023-08-07T06:54:47;3.40;;;1.63;;
71867;SDS011;59738;48.324;14.230;2023-08-07T06:57:15;3.05;;;1.67;;
71867;SDS011;59738;48.324;14.230;2023-08-07T06:59:42;1.98;;;1.77;;
71867;SDS011;59738;48.324;14.230;2023-08-07T07:02:10;2.00;;;1.80;;
71867;SDS011;59738;48.324;14.230;2023-08-07T07:04:37;3.67;;;1.80;;
71867;SDS011;59738;48.324;14.230;2023-08-07T07:07:06;3.70;;;1.75;;
71867;SDS011;59738;48.324;14.230;2023-08-07T07:09:33;2.35;;;1.65;;
71867;SDS011;59738;48.324;14.230;2023-08-07T07:12:01;2.10;;;1.70;;
71867;SDS011;59738;48.324;14.230;2023-08-07T07:14:28;2.78;;;1.70;;
71867;SDS011;59738;48.324;14.230;2023-08-07T07:16:55;2.63;;;2.00;;
71867;SDS011;59738;48.324;14.230;2023-08-07T07:19:23;2.95;;;1.90;;
71867;SDS011;59738;48.324;14.230;2023-08-07T07:21:50;4.03;;;2.03;;
71867;SDS011;59738;48.324;14.230;2023-08-07T07:24:19;2.67;;;1.92;;
71867;SDS011;59738;48.324;14.230;2023-08-07T07:26:46;3.63;;;1.65;;
71867;SDS011;59738;48.324;14.230;2023-08-07T07:29:13;2.67;;;1.60;;
71867;SDS011;59738;48.324;14.230;2023-08-07T07:31:41;2.95;;;1.83;;
71867;SDS011;59738;48.324;14.230;2023-08-07T07:34:08;2.42;;;1.80;;
71867;SDS011;59738;48.324;14.230;2023-08-07T07:36:35;3.20;;;1.80;;
71867;SDS011;59738;48.324;14.230;2023-08-07T07:39:03;2.83;;;1.90;;
71867;SDS011;59738;48.324;14.230;2023-08-07T07:41:31;3.20;;;1.87;;
71867;SDS011;59738;48.324;14.230;2023-08-07T07:43:59;3.72;;;1.83;;
71867;SDS011;59738;48.324;14.230;2023-08-07T07:46:28;2.42;;;2.00;;
71867;SDS011;59738;48.324;14.230;2023-08-07T07:48:55;3.40;;;1.63;;
71867;SDS011;59738;48.324;14.230;2023-08-07T07:51:22;2.53;;;2.10;;
71867;SDS011;59738;48.324;14.230;2023-08-07T07:53:50;2.20;;;1.80;;
71867;SDS011;59738;48.324;14.230;2023-08-07T07:56:17;1.90;;;1.50;;
71867;SDS011;59738;48.324;14.230;2023-08-07T07:58:46;3.35;;;1.80;;
71867;SDS011;59738;48.324;14.230;2023-08-07T08:01:13;2.80;;;2.10;;
71867;SDS011;59738;48.324;14.230;2023-08-07T08:03:40;2.30;;;2.08;;
71867;SDS011;59738;48.324;14.230;2023-08-07T08:06:10;4.07;;;1.57;;
71867;SDS011;59738;48.324;14.230;2023-08-07T08:08:38;4.85;;;1.80;;
71867;SDS011;59738;48.324;14.230;2023-08-07T08:11:05;4.00;;;2.00;;
71867;SDS011;59738;48.324;14.230;2023-08-07T08:13:32;2.85;;;1.98;;
71867;SDS011;59738;48.324;14.230;2023-08-07T08:16:03;2.63;;;1.90;;
71867;SDS011;59738;48.324;14.230;2023-08-07T08:18:30;2.87;;;1.87;;
71867;SDS011;59738;48.324;14.230;2023-08-07T08:20:58;2.33;;;1.77;;
71867;SDS011;59738;48.324;14.230;2023-08-07T08:23:25;3.08;;;2.10;;
71867;SDS011;59738;48.324;14.230;2023-08-07T08:25:52;3.03;;;1.60;;
71867;SDS011;59738;48.324;14.230;2023-08-07T08:28:20;3.80;;;1.77;;
71867;SDS011;59738;48.324;14.230;2023-08-07T08:30:47;3.70;;;1.90;;
71867;SDS011;59738;48.324;14.230;2023-08-07T08:33:16;4.10;;;2.10;;
71867;SDS011;59738;48.324;14.230;2023-08-07T08:35:43;5.50;;;2.20;;
71867;SDS011;59738;48.324;14.230;2023-08-07T08:38:11;2.08;;;1.80;;
71867;SDS011;59738;48.324;14.230;2023-08-07T08:40:38;3.80;;;2.20;;
71867;SDS011;59738;48.324;14.230;2023-08-07T08:43:06;4.30;;;1.77;;
71867;SDS011;59738;48.324;14.230;2023-08-07T08:45:33;4.75;;;2.58;;
71867;SDS011;59738;48.324;14.230;2023-08-07T08:48:03;3.85;;;1.90;;
71867;SDS011;59738;48.324;14.230;2023-08-07T08:50:33;3.53;;;1.95;;
71867;SDS011;59738;48.324;14.230;2023-08-07T08:53:01;4.07;;;2.20;;
71867;SDS011;59738;48.324;14.230;2023-08-07T08:55:30;3.47;;;1.80;;
71867;SDS011;59738;48.324;14.230;2023-08-07T08:57:57;3.75;;;2.10;;
71867;SDS011;59738;48.324;14.230;2023-08-07T09:00:26;3.75;;;2.15;;
71867;SDS011;59738;48.324;14.230;2023-08-07T09:02:55;4.55;;;2.22;;
71867;SDS011;59738;48.324;14.230;2023-08-07T09:05:22;2.85;;;2.30;;
71867;SDS011;59738;48.324;14.230;2023-08-07T09:07:51;2.13;;;1.57;;
71867;SDS011;59738;48.324;14.230;2023-08-07T09:10:19;2.72;;;1.77;;
71867;SDS011;59738;48.324;14.230;2023-08-07T09:12:49;3.55;;;2.10;;
71867;SDS011;59738;48.324;14.230;2023-08-07T09:15:21;4.22;;;1.80;;
71867;SDS011;59738;48.324;14.230;2023-08-07T09:17:49;2.53;;;2.10;;
71867;SDS011;59738;48.324;14.230;2023-08-07T09:20:16;4.73;;;2.17;;
71867;SDS011;59738;48.324;14.230;2023-08-07T09:22:45;3.63;;;1.83;;
71867;SDS011;59738;48.324;14.230;2023-08-07T09:25:14;4.47;;;2.10;;
71867;SDS011;59738;48.324;14.230;2023-08-07T09:27:41;4.25;;;2.13;;
71867;SDS011;59738;48.324;14.230;2023-08-07T09:30:09;2.90;;;2.33;;
71867;SDS011;59738;48.324;14.230;2023-08-07T09:32:37;5.30;;;2.30;;
71867;SDS011;59738;48.324;14.230;2023-08-07T09:35:06;3.90;;;1.95;;
71867;SDS011;59738;48.324;14.230;2023-08-07T09:37:36;4.22;;;2.20;;
71867;SDS011;59738;48.324;14.230;2023-08-07T09:40:04;3.42;;;1.80;;
71867;SDS011;59738;48.324;14.230;2023-08-07T09:42:37;3.60;;;2.20;;
71867;SDS011;59738;48.324;14.230;2023-08-07T09:45:18;5.50;;;2.43;;
71867;SDS011;59738;48.324;14.230;2023-08-07T09:47:46;4.65;;;2.35;;
71867;SDS011;59738;48.324;14.230;2023-08-07T09:50:15;5.25;;;2.72;;
71867;SDS011;59738;48.324;14.230;2023-08-07T09:52:45;4.25;;;2.50;;
71867;SDS011;59738;48.324;14.230;2023-08-07T09:55:13;4.53;;;2.20;;
71867;SDS011;59738;48.324;14.230;2023-08-07T09:57:43;3.13;;;2.10;;
71867;SDS011;59738;48.324;14.230;2023-08-07T10:00:10;2.85;;;1.95;;
71867;SDS011;59738;48.324;14.230;2023-08-07T10:02:42;6.43;;;2.45;;
71867;SDS011;59738;48.324;14.230;2023-08-07T10:05:09;3.13;;;2.05;;
71867;SDS011;59738;48.324;14.230;2023-08-07T10:07:37;6.22;;;2.63;;
71867;SDS011;59738;48.324;14.230;2023-08-07T10:10:05;5.03;;;2.30;;
71867;SDS011;59738;48.324;14.230;2023-08-07T10:12:33;3.17;;;2.17;;
71867;SDS011;59738;48.324;14.230;2023-08-07T10:15:03;4.25;;;2.50;;
71867;SDS011;59738;48.324;14.230;2023-08-07T10:17:31;3.83;;;2.25;;
71867;SDS011;59738;48.324;14.230;2023-08-07T10:19:58;6.40;;;2.97;;
71867;SDS011;59738;48.324;14.230;2023-08-07T10:22:27;3.80;;;2.13;;
71867;SDS011;59738;48.324;14.230;2023-08-07T10:24:59;3.90;;;2.50;;
71867;SDS011;59738;48.324;14.230;2023-08-07T10:27:29;2.78;;;2.10;;
71867;SDS011;59738;48.324;14.230;2023-08-07T10:29:56;5.03;;;2.10;;
71867;SDS011;59738;48.324;14.230;2023-08-07T10:32:26;8.02;;;2.30;;
71867;SDS011;59738;48.324;14.230;2023-08-07T10:34:54;4.20;;;2.60;;
71867;SDS011;59738;48.324;14.230;2023-08-07T10:37:32;6.13;;;2.63;;
71867;SDS011;59738;48.324;14.230;2023-08-07T10:40:01;3.83;;;2.58;;
71867;SDS011;59738;48.324;14.230;2023-08-07T10:42:33;4.55;;;2.17;;
71867;SDS011;59738;48.324;14.230;2023-08-07T10:45:01;4.00;;;2.58;;
71867;SDS011;59738;48.324;14.230;2023-08-07T10:47:36;4.17;;;2.27;;
71867;SDS011;59738;48.324;14.230;2023-08-07T10:50:03;4.72;;;2.33;;
71867;SDS011;59738;48.324;14.230;2023-08-07T10:52:31;3.88;;;2.30;;
71867;SDS011;59738;48.324;14.230;2023-08-07T10:54:58;4.72;;;2.40;;
71867;SDS011;59738;48.324;14.230;2023-08-07T10:57:26;6.57;;;2.85;;
71867;SDS011;59738;48.324;14.230;2023-08-07T11:00:00;5.37;;;2.83;;
71867;SDS011;59738;48.324;14.230;2023-08-07T11:02:31;4.13;;;2.70;;
71867;SDS011;59738;48.324;14.230;2023-08-07T11:05:00;4.28;;;2.80;;
71867;SDS011;59738;48.324;14.230;2023-08-07T11:07:28;5.85;;;3.13;;
71867;SDS011;59738;48.324;14.230;2023-08-07T11:09:56;5.57;;;2.60;;
71867;SDS011;59738;48.324;14.230;2023-08-07T11:12:25;4.13;;;2.53;;
71867;SDS011;59738;48.324;14.230;2023-08-07T11:14:52;6.40;;;2.58;;
71867;SDS011;59738;48.324;14.230;2023-08-07T11:17:24;3.45;;;2.63;;
71867;SDS011;59738;48.324;14.230;2023-08-07T11:19:51;5.13;;;2.47;;
71867;SDS011;59738;48.324;14.230;2023-08-07T11:22:21;5.80;;;2.58;;
71867;SDS011;59738;48.324;14.230;2023-08-07T11:24:49;7.30;;;2.60;;
71867;SDS011;59738;48.324;14.230;2023-08-07T11:27:17;4.97;;;2.83;;
71867;SDS011;59738;48.324;14.230;2023-08-07T11:29:46;5.40;;;2.35;;
71867;SDS011;59738;48.324;14.230;2023-08-07T11:32:14;3.83;;;2.35;;
71867;SDS011;59738;48.324;14.230;2023-08-07T11:34:46;4.47;;;2.30;;
71867;SDS011;59738;48.324;14.230;2023-08-07T11:37:15;5.07;;;2.77;;
71867;SDS011;59738;48.324;14.230;2023-08-07T11:39:45;4.85;;;2.70;;
71867;SDS011;59738;48.324;14.230;2023-08-07T11:42:12;5.00;;;2.22;;
71867;SDS011;59738;48.324;14.230;2023-08-07T11:44:40;3.78;;;2.30;;
71867;SDS011;59738;48.324;14.230;2023-08-07T11:47:08;3.25;;;2.30;;
71867;SDS011;59738;48.324;14.230;2023-08-07T11:49:36;3.87;;;2.27;;
71867;SDS011;59738;48.324;14.230;2023-08-07T11:52:04;4.38;;;2.30;;
71867;SDS011;59738;48.324;14.230;2023-08-07T11:54:32;3.72;;;2.20;;
71867;SDS011;59738;48.324;14.230;2023-08-07T11:57:01;4.43;;;2.22;;
71867;SDS011;59738;48.324;14.230;2023-08-07T11:59:28;3.80;;;2.40;;
71867;SDS011;59738;48.324;14.230;2023-08-07T12:01:56;3.73;;;2.50;;
71867;SDS011;59738;48.324;14.230;2023-08-07T12:04:23;4.25;;;2.00;;
71867;SDS011;59738;48.324;14.230;2023-08-07T12:06:53;3.08;;;2.28;;
71867;SDS011;59738;48.324;14.230;2023-08-07T12:09:21;2.40;;;1.92;;
71867;SDS011;59738;48.324;14.230;2023-08-07T12:11:49;3.10;;;2.10;;
71867;SDS011;59738;48.324;14.230;2023-08-07T12:14:18;3.27;;;2.33;;
71867;SDS011;59738;48.324;14.230;2023-08-07T12:16:45;2.55;;;2.22;;
71867;SDS011;59738;48.324;14.230;2023-08-07T12:19:12;8.20;;;2.72;;
71867;SDS011;59738;48.324;14.230;2023-08-07T12:21:40;4.63;;;2.15;;
71867;SDS011;59738;48.324;14.230;2023-08-07T12:24:08;2.60;;;2.03;;
71867;SDS011;59738;48.324;14.230;2023-08-07T12:26:35;8.17;;;2.83;;
71867;SDS011;59738;48.324;14.230;2023-08-07T12:29:02;4.15;;;2.35;;
71867;SDS011;59738;48.324;14.230;2023-08-07T12:31:31;4.05;;;2.45;;
71867;SDS011;59738;48.324;14.230;2023-08-07T12:33:59;3.03;;;2.20;;
71867;SDS011;59738;48.324;14.230;2023-08-07T12:36:26;3.47;;;2.10;;
71867;SDS011;59738;48.324;14.230;2023-08-07T12:38:53;3.47;;;2.37;;
71867;SDS011;59738;48.324;14.230;2023-08-07T12:41:21;4.20;;;2.20;;
71867;SDS011;59738;48.324;14.230;2023-08-07T12:43:48;4.85;;;2.50;;
71867;SDS011;59738;48.324;14.230;2023-08-07T12:46:16;4.60;;;2.80;;
71867;SDS011;59738;48.324;14.230;2023-08-07T12:48:44;3.55;;;2.38;;
71867;SDS011;59738;48.324;14.230;2023-08-07T12:51:12;4.13;;;2.53;;
71867;SDS011;59738;48.324;14.230;2023-08-07T12:53:39;3.40;;;2.13;;
71867;SDS011;59738;48.324;14.230;2023-08-07T12:56:06;3.30;;;2.70;;
71867;SDS011;59738;48.324;14.230;2023-08-07T12:58:34;5.20;;;2.40;;
71867;SDS011;59738;48.324;14.230;2023-08-07T13:01:02;2.55;;;2.30;;
71867;SDS011;59738;48.324;14.230;2023-08-07T13:03:29;2.97;;;2.20;;
71867;SDS011;59738;48.324;14.230;2023-08-07T13:05:58;4.20;;;2.20;;
71867;SDS011;59738;48.324;14.230;2023-08-07T13:08:25;5.65;;;2.30;;
71867;SDS011;59738;48.324;14.230;2023-08-07T13:10:53;4.60;;;2.58;;
71867;SDS011;59738;48.324;14.230;2023-08-07T13:13:21;6.00;;;2.58;;
71867;SDS011;59738;48.324;14.230;2023-08-07T13:15:48;3.97;;;2.30;;
71867;SDS011;59738;48.324;14.230;2023-08-07T13:18:16;5.85;;;2.55;;
71867;SDS011;59738;48.324;14.230;2023-08-07T13:20:43;3.42;;;2.28;;
71867;SDS011;59738;48.324;14.230;2023-08-07T13:23:13;4.05;;;2.83;;
71867;SDS011;59738;48.324;14.230;2023-08-07T13:25:41;4.70;;;2.15;;
71867;SDS011;59738;48.324;14.230;2023-08-07T13:28:08;6.73;;;2.37;;
71867;SDS011;59738;48.324;14.230;2023-08-07T13:30:35;6.25;;;2.20;;
71867;SDS011;59738;48.324;14.230;2023-08-07T13:33:03;3.95;;;2.50;;
71867;SDS011;59738;48.324;14.230;2023-08-07T13:35:30;4.63;;;2.47;;
71867;SDS011;59738;48.324;14.230;2023-08-07T13:37:58;4.30;;;2.13;;
71867;SDS011;59738;48.324;14.230;2023-08-07T13:40:27;5.07;;;2.30;;
71867;SDS011;59738;48.324;14.230;2023-08-07T13:42:54;4.70;;;2.17;;
71867;SDS011;59738;48.324;14.230;2023-08-07T13:45:21;2.50;;;2.30;;
71867;SDS011;59738;48.324;14.230;2023-08-07T13:47:49;3.88;;;2.20;;
71867;SDS011;59738;48.324;14.230;2023-08-07T13:50:16;5.25;;;2.50;;
71867;SDS011;59738;48.324;14.230;2023-08-07T13:52:44;4.03;;;2.30;;
71867;SDS011;59738;48.324;14.230;2023-08-07T13:55:11;2.83;;;2.20;;
71867;SDS011;59738;48.324;14.230;2023-08-07T13:57:40;9.05;;;2.45;;
71867;SDS011;59738;48.324;14.230;2023-08-07T14:00:08;6.72;;;2.40;;
71867;SDS011;59738;48.324;14.230;2023-08-07T14:02:36;4.50;;;2.10;;
71867;SDS011;59738;48.324;14.230;2023-08-07T14:05:04;2.60;;;2.00;;
71867;SDS011;59738;48.324;14.230;2023-08-07T14:07:32;3.75;;;2.00;;
71867;SDS011;59738;48.324;14.230;2023-08-07T14:09:59;5.03;;;2.35;;
71867;SDS011;59738;48.324;14.230;2023-08-07T14:12:29;4.38;;;2.25;;
71867;SDS011;59738;48.324;14.230;2023-08-07T14:14:58;2.65;;;2.30;;
71867;SDS011;59738;48.324;14.230;2023-08-07T14:17:25;8.70;;;2.20;;
71867;SDS011;59738;48.324;14.230;2023-08-07T14:19:53;3.88;;;1.88;;
71867;SDS011;59738;48.324;14.230;2023-08-07T14:22:20;4.55;;;2.42;;
71867;SDS011;59738;48.324;14.230;2023-08-07T14:24:47;3.60;;;2.05;;
71867;SDS011;59738;48.324;14.230;2023-08-07T14:27:15;2.47;;;1.90;;
71867;SDS011;59738;48.324;14.230;2023-08-07T14:29:42;3.10;;;2.07;;
71867;SDS011;59738;48.324;14.230;2023-08-07T14:32:11;2.53;;;1.80;;
71867;SDS011;59738;48.324;14.230;2023-08-07T14:34:38;5.18;;;2.22;;
71867;SDS011;59738;48.324;14.230;2023-08-07T14:37:05;2.63;;;1.85;;